Time;durP1;ratioP1;P1;durP2;ratioP2;P2;SDS_P1;SDS_P2;PMS_P1;PMS_P2;Temp;Humidity;BMP_temperature;BMP_pressure;BME280_temperature;BME280_humidity;BME280_pressure;Samples;Min_cycle;Max_cycle;Signal;HPM_P1;HPM_P2
2023/03/04 00:00:56;;;;;;;414.10;134.70;;;;;;;1.97;nan;98898.81;5035034;28;20128;-59
2023/03/04 00:03:22;;;;;;;410.90;130.13;;;;;;;1.74;nan;98875.63;5039677;28;20127;-59
2023/03/04 00:05:48;;;;;;;408.60;133.50;;;;;;;1.65;nan;98876.28;5033664;28;20049;-58
2023/03/04 00:08:14;;;;;;;413.40;137.13;;;;;;;1.74;nan;98901.72;5028283;28;20140;-60
2023/03/04 00:10:39;;;;;;;416.00;136.73;;;;;;;1.48;nan;98872.56;5033718;28;20041;-59
2023/03/04 00:13:05;;;;;;;412.17;130.87;;;;;;;1.50;nan;98893.66;5030748;28;20106;-59
2023/03/04 00:15:30;;;;;;;413.33;134.53;;;;;;;1.31;nan;98886.53;5032145;28;20056;-60
2023/03/04 00:17:56;;;;;;;413.60;133.37;;;;;;;1.35;nan;98901.78;5030909;28;20822;-58
2023/03/04 00:20:22;;;;;;;411.77;127.50;;;;;;;1.32;nan;98891.56;5029509;28;20131;-60
2023/03/04 00:22:48;;;;;;;408.70;129.57;;;;;;;1.40;nan;98893.44;5032344;28;20052;-59
2023/03/04 00:25:13;;;;;;;412.97;128.93;;;;;;;1.17;nan;98872.72;5032950;28;20029;-58
2023/03/04 00:27:39;;;;;;;413.90;130.37;;;;;;;1.27;nan;98892.31;5032868;28;20045;-60
2023/03/04 00:30:06;;;;;;;411.80;129.87;;;;;;;1.04;nan;98866.56;5031341;28;20287;-60
2023/03/04 00:32:32;;;;;;;412.00;127.93;;;;;;;1.11;nan;98887.72;5031319;28;20041;-61
2023/03/04 00:34:58;;;;;;;412.67;133.67;;;;;;;0.99;nan;98878.22;5029469;28;20762;-60
2023/03/04 00:37:23;;;;;;;413.37;132.43;;;;;;;0.91;nan;98882.25;5028915;28;20041;-59
2023/03/04 00:39:49;;;;;;;416.40;129.80;;;;;;;0.82;nan;98882.03;5030405;28;20325;-59
2023/03/04 00:42:15;;;;;;;416.43;129.17;;;;;;;0.63;nan;98869.81;5032819;28;20049;-59
2023/03/04 00:44:40;;;;;;;414.13;130.23;;;;;;;0.69;nan;98874.97;5028137;28;20473;-60
2023/03/04 00:47:06;;;;;;;414.47;127.50;;;;;;;0.62;nan;98876.53;5030392;28;20115;-59
2023/03/04 00:49:32;;;;;;;411.77;126.30;;;;;;;0.53;nan;98875.44;5030060;28;20414;-60
2023/03/04 00:51:57;;;;;;;417.20;134.70;;;;;;;0.29;nan;98842.91;5032779;28;20572;-59
2023/03/04 00:54:23;;;;;;;412.53;128.73;;;;;;;0.38;nan;98865.84;5033189;28;20141;-60
2023/03/04 00:56:49;;;;;;;415.70;130.37;;;;;;;0.24;nan;98841.94;5031018;28;20279;-60
2023/03/04 00:59:15;;;;;;;414.10;127.60;;;;;;;0.33;nan;98862.34;5029414;28;20064;-60
2023/03/04 01:01:40;;;;;;;412.53;127.40;;;;;;;0.30;nan;98862.25;5031359;28;20041;-60
2023/03/04 01:04:06;;;;;;;414.80;127.07;;;;;;;0.13;nan;98839.13;5033052;28;20563;-63
2023/03/04 01:06:32;;;;;;;411.87;127.70;;;;;;;0.11;nan;98823.13;5018309;28;20061;-58
2023/03/04 01:08:57;;;;;;;413.37;125.20;;;;;;;0.25;nan;98826.00;5030097;28;20084;-58
2023/03/04 01:11:23;;;;;;;418.80;133.77;;;;;;;0.16;nan;98825.78;5027686;28;20432;-57
2023/03/04 01:13:49;;;;;;;418.47;135.03;;;;;;;0.20;nan;98845.19;5026730;28;20041;-61
2023/03/04 01:16:14;;;;;;;415.17;132.00;;;;;;;0.09;nan;98849.09;5026078;28;20473;-59
2023/03/04 01:18:40;;;;;;;419.80;128.30;;;;;;;-0.13;nan;98814.97;5027977;28;20045;-57
2023/03/04 01:21:07;;;;;;;421.57;133.40;;;;;;;0.03;nan;98841.41;5035073;28;20444;-58
2023/03/04 01:23:33;;;;;;;415.33;131.47;;;;;;;-0.19;nan;98813.13;5029211;28;20290;-57
2023/03/04 01:26:00;;;;;;;418.00;128.27;;;;;;;-0.12;nan;98845.22;5029939;28;20144;-59
2023/03/04 01:28:26;;;;;;;417.30;130.13;;;;;;;-0.11;nan;98841.91;5033236;28;20291;-58
2023/03/04 01:30:51;;;;;;;417.83;130.57;;;;;;;-0.39;nan;98804.19;5029557;28;20295;-58
2023/03/04 01:33:17;;;;;;;419.10;129.30;;;;;;;-0.41;nan;98812.50;5026820;28;20067;-58
2023/03/04 01:35:43;;;;;;;410.60;124.97;;;;;;;-0.22;nan;98827.31;5028117;28;20511;-59
2023/03/04 01:38:08;;;;;;;412.43;127.87;;;;;;;-0.32;nan;98821.16;5029993;28;20128;-57
2023/03/04 01:40:34;;;;;;;412.00;124.70;;;;;;;-0.51;nan;98799.66;5034302;28;20050;-59
2023/03/04 01:43:00;;;;;;;415.87;125.73;;;;;;;-0.43;nan;98824.22;5028778;28;20432;-59
2023/03/04 01:45:26;;;;;;;409.17;127.07;;;;;;;-0.54;nan;98784.47;5026695;28;20417;-58
2023/03/04 01:47:51;;;;;;;413.17;127.00;;;;;;;-0.38;nan;98810.91;5028221;28;20291;-58
2023/03/04 01:50:29;;;;;;;412.47;123.83;;;;;;;-0.43;nan;98822.56;5028183;28;20041;-58
2023/03/04 01:52:55;;;;;;;410.00;123.53;;;;;;;-0.52;nan;98808.06;5022463;28;20545;-58
2023/03/04 01:55:22;;;;;;;410.90;125.67;;;;;;;-0.58;nan;98799.47;5027245;28;20273;-58
2023/03/04 01:57:49;;;;;;;409.63;128.27;;;;;;;-0.58;nan;98801.97;5044018;28;20048;-59
2023/03/04 02:00:29;;;;;;;410.77;126.47;;;;;;;-0.75;nan;98773.84;5028758;28;20305;-57
2023/03/04 02:03:10;;;;;;;408.53;123.47;;;;;;;-0.67;nan;98796.69;5028319;28;20318;-65
2023/03/04 02:05:38;;;;;;;415.67;123.87;;;;;;;-0.72;nan;98803.28;5029593;28;20765;-59
2023/03/04 02:08:05;;;;;;;417.07;128.17;;;;;;;-0.89;nan;98774.28;5023905;28;20608;-59
2023/03/04 02:10:30;;;;;;;412.30;122.77;;;;;;;-0.79;nan;98786.28;5030225;28;20283;-60
2023/03/04 02:12:58;;;;;;;416.57;126.77;;;;;;;-0.87;nan;98788.59;5032833;28;20311;-58
2023/03/04 02:15:24;;;;;;;411.83;121.70;;;;;;;-0.84;nan;98787.81;5029339;28;20489;-59
2023/03/04 02:17:51;;;;;;;412.60;122.33;;;;;;;-0.92;nan;98785.94;5030821;28;20829;-58
2023/03/04 02:20:22;;;;;;;414.00;119.73;;;;;;;-1.13;nan;98756.81;5031891;28;20300;-58
2023/03/04 02:23:01;;;;;;;411.33;119.93;;;;;;;-0.96;nan;98776.59;5030101;28;20331;-59
2023/03/04 02:25:38;;;;;;;418.97;122.83;;;;;;;-1.01;nan;98782.31;5029702;28;20298;-58
2023/03/04 02:28:04;;;;;;;410.50;120.77;;;;;;;-1.04;nan;98775.53;5030077;28;20300;-58
2023/03/04 02:30:30;;;;;;;413.17;124.67;;;;;;;-0.98;nan;98784.94;5029149;28;20839;-58
2023/03/04 02:32:55;;;;;;;414.73;120.17;;;;;;;-1.00;nan;98773.94;5030201;28;20172;-58
2023/03/04 02:35:21;;;;;;;418.77;126.10;;;;;;;-1.00;nan;98766.41;5035375;28;20111;-58
2023/03/04 02:37:47;;;;;;;411.63;119.63;;;;;;;-1.03;nan;98768.84;5029964;28;20044;-58
2023/03/04 02:40:23;;;;;;;411.90;123.33;;;;;;;-1.06;nan;98769.59;5031395;28;20295;-58
2023/03/04 02:42:49;;;;;;;411.07;123.23;;;;;;;-1.11;nan;98761.09;5045639;28;20037;-59
2023/03/04 02:45:54;;;;;;;413.00;125.90;;;;;;;-1.09;nan;98756.06;5029825;28;20306;-59
2023/03/04 02:48:22;;;;;;;408.20;120.70;;;;;;;-1.33;nan;98728.56;4980152;28;20912;-59
2023/03/04 02:50:51;;;;;;;409.70;121.37;;;;;;;-1.35;nan;98726.81;4964973;28;20320;-59
2023/03/04 02:53:16;;;;;;;414.20;123.63;;;;;;;-1.17;nan;98752.50;4981045;28;20404;-59
2023/03/04 02:55:43;;;;;;;412.17;119.57;;;;;;;-1.26;nan;98743.03;4981896;28;20296;-57
2023/03/04 02:58:11;;;;;;;406.27;118.40;;;;;;;-1.22;nan;98752.34;4964304;28;21181;-59
2023/03/04 03:00:37;;;;;;;412.50;121.13;;;;;;;-1.31;nan;98731.97;4980743;28;20348;-58
2023/03/04 03:03:04;;;;;;;407.17;119.13;;;;;;;-1.24;nan;98735.53;4978292;28;20305;-59
2023/03/04 03:05:31;;;;;;;411.57;120.80;;;;;;;-1.22;nan;98748.97;4982383;28;20324;-60
2023/03/04 03:07:57;;;;;;;404.53;120.03;;;;;;;-1.28;nan;98733.75;4949458;28;20285;-59
2023/03/04 03:10:23;;;;;;;401.73;117.37;;;;;;;-1.28;nan;98746.31;4965098;28;20364;-59
2023/03/04 03:12:49;;;;;;;418.37;127.20;;;;;;;-1.28;nan;98738.75;4980627;28;20396;-58
2023/03/04 03:15:15;;;;;;;405.40;121.17;;;;;;;-1.27;nan;98743.81;4978743;28;20396;-62
2023/03/04 03:17:41;;;;;;;405.30;116.83;;;;;;;-1.28;nan;98732.06;4963198;28;20085;-57
2023/03/04 03:20:09;;;;;;;406.13;119.90;;;;;;;-1.31;nan;98736.13;5027395;28;20300;-58
2023/03/04 03:22:35;;;;;;;411.97;121.70;;;;;;;-1.39;nan;98724.22;5032094;28;20888;-58
2023/03/04 03:25:01;;;;;;;409.77;117.07;;;;;;;-1.41;nan;98722.47;5034491;28;20304;-59
2023/03/04 03:27:26;;;;;;;407.97;114.97;;;;;;;-1.44;nan;98723.22;5033584;28;20044;-60
2023/03/04 03:29:52;;;;;;;409.03;120.30;;;;;;;-1.52;nan;98714.59;5035182;28;20053;-59
2023/03/04 03:32:18;;;;;;;404.83;117.27;;;;;;;-1.43;nan;98714.00;5030350;28;20049;-59
2023/03/04 03:34:44;;;;;;;415.13;123.43;;;;;;;-1.57;nan;98680.94;5034476;28;20073;-60
2023/03/04 03:37:10;;;;;;;403.80;119.83;;;;;;;-1.60;nan;98690.03;5031246;28;20086;-60
2023/03/04 03:39:35;;;;;;;408.40;121.93;;;;;;;-1.48;nan;98710.50;5030265;28;20083;-60
2023/03/04 03:42:01;;;;;;;409.43;117.33;;;;;;;-1.49;nan;98706.31;5031930;28;20041;-59
2023/03/04 03:44:27;;;;;;;409.27;118.03;;;;;;;-1.53;nan;98700.31;5033914;28;20163;-60
2023/03/04 03:46:53;;;;;;;408.73;118.17;;;;;;;-1.59;nan;98692.63;5033605;28;20421;-59
2023/03/04 03:49:18;;;;;;;407.43;121.23;;;;;;;-1.73;nan;98667.88;5032523;28;20085;-58
2023/03/04 03:51:44;;;;;;;408.40;118.97;;;;;;;-1.63;nan;98690.81;5033058;28;20045;-63
2023/03/04 03:54:10;;;;;;;406.37;117.63;;;;;;;-1.84;nan;98662.53;5033459;28;20046;-58
2023/03/04 03:56:35;;;;;;;404.53;115.93;;;;;;;-1.72;nan;98682.13;5033196;28;20076;-61
2023/03/04 03:59:01;;;;;;;403.63;116.70;;;;;;;-1.77;nan;98681.16;5030000;28;20420;-58
2023/03/04 04:01:27;;;;;;;401.27;119.40;;;;;;;-1.77;nan;98683.66;5033088;28;20049;-59
2023/03/04 04:03:52;;;;;;;404.00;117.23;;;;;;;-1.75;nan;98670.34;5031643;28;20056;-59
2023/03/04 04:06:18;;;;;;;406.87;118.20;;;;;;;-1.78;nan;98655.16;5035094;28;20041;-58
2023/03/04 04:08:44;;;;;;;403.43;116.47;;;;;;;-1.76;nan;98656.06;5034297;28;20045;-59
2023/03/04 04:11:11;;;;;;;405.03;117.17;;;;;;;-1.69;nan;98673.03;5033571;28;20478;-60
2023/03/04 04:13:37;;;;;;;411.53;120.70;;;;;;;-1.63;nan;98672.38;5031801;28;20042;-58
2023/03/04 04:16:04;;;;;;;412.63;118.60;;;;;;;-1.64;nan;98643.00;5031643;28;20291;-58
2023/03/04 04:18:29;;;;;;;406.07;119.97;;;;;;;-0.85;nan;98645.22;5031624;28;20299;-58
2023/03/04 04:20:55;;;;;;;414.40;120.23;;;;;;;-0.88;nan;98666.09;5033438;28;20307;-59
2023/03/04 04:23:21;;;;;;;403.20;117.00;;;;;;;-1.08;nan;98660.53;5031712;28;20615;-59
2023/03/04 04:25:46;;;;;;;407.90;121.77;;;;;;;-1.22;nan;98663.47;5034078;28;20053;-58
2023/03/04 04:28:12;;;;;;;401.63;119.17;;;;;;;-1.17;nan;98666.97;5030606;28;20536;-59
2023/03/04 04:30:38;;;;;;;402.80;118.37;;;;;;;-1.30;nan;98660.75;5032437;28;20521;-59
2023/03/04 04:33:04;;;;;;;408.63;121.67;;;;;;;-1.19;nan;98656.88;5034436;28;20178;-59
2023/03/04 04:35:32;;;;;;;409.17;120.40;;;;;;;-1.03;nan;98633.00;5036279;28;20632;-59
2023/03/04 04:37:57;;;;;;;413.37;121.83;;;;;;;-0.69;nan;98663.25;5033323;28;20128;-58
2023/03/04 04:40:23;;;;;;;408.43;120.70;;;;;;;-0.53;nan;98662.84;5031754;28;20831;-59
2023/03/04 04:42:49;;;;;;;406.60;120.27;;;;;;;-0.75;nan;98637.06;5027565;28;20053;-59
2023/03/04 04:45:15;;;;;;;409.37;120.97;;;;;;;-0.52;nan;98658.66;5029883;28;20424;-60
2023/03/04 04:47:41;;;;;;;411.17;124.37;;;;;;;-0.42;nan;98653.00;5029900;28;20041;-60
2023/03/04 04:50:07;;;;;;;407.80;119.73;;;;;;;-0.83;nan;98649.47;5030139;28;20449;-58
2023/03/04 04:52:32;;;;;;;413.50;123.30;;;;;;;-0.83;nan;98628.47;5029958;28;20156;-58
2023/03/04 04:54:58;;;;;;;407.40;121.67;;;;;;;-0.56;nan;98660.25;5030865;28;20339;-58
2023/03/04 04:57:24;;;;;;;413.07;122.40;;;;;;;-0.90;nan;98654.31;5026655;28;20438;-60
2023/03/04 04:59:49;;;;;;;410.40;121.07;;;;;;;-1.04;nan;98638.84;5023988;28;20648;-61
2023/03/04 05:02:15;;;;;;;405.47;118.30;;;;;;;-1.29;nan;98647.38;5028775;28;20563;-59
2023/03/04 05:04:41;;;;;;;410.10;125.40;;;;;;;-1.39;nan;98648.78;5030053;28;20462;-59
2023/03/04 05:07:06;;;;;;;407.27;120.10;;;;;;;-1.56;nan;98647.44;5029059;28;20056;-60
2023/03/04 05:09:32;;;;;;;408.77;119.43;;;;;;;-1.62;nan;98652.31;5029217;28;20064;-60
2023/03/04 05:11:58;;;;;;;410.50;119.13;;;;;;;-1.70;nan;98656.28;5029978;28;20045;-60
2023/03/04 05:14:24;;;;;;;410.50;119.33;;;;;;;-1.73;nan;98645.25;5030616;28;20053;-60
2023/03/04 05:16:51;;;;;;;409.50;120.57;;;;;;;-1.87;nan;98632.31;5027587;28;20432;-60
2023/03/04 05:19:18;;;;;;;404.50;117.53;;;;;;;-1.81;nan;98642.53;5029681;28;20049;-59
2023/03/04 05:21:44;;;;;;;411.90;124.80;;;;;;;-1.85;nan;98645.75;5029725;28;20390;-60
2023/03/04 05:24:09;;;;;;;409.73;123.23;;;;;;;-1.96;nan;98630.38;5029567;28;20608;-59
2023/03/04 05:26:35;;;;;;;411.53;121.33;;;;;;;-1.89;nan;98642.31;5030619;28;20045;-60
2023/03/04 05:29:02;;;;;;;415.40;125.67;;;;;;;-1.99;nan;98634.44;5030823;28;20045;-59
2023/03/04 05:31:28;;;;;;;413.77;121.73;;;;;;;-1.93;nan;98645.53;5030937;28;20310;-60
2023/03/04 05:33:53;;;;;;;413.87;122.23;;;;;;;-1.98;nan;98647.03;5033058;28;20675;-59
2023/03/04 05:36:19;;;;;;;412.30;121.60;;;;;;;-1.96;nan;98652.97;5031318;28;20506;-59
2023/03/04 05:38:45;;;;;;;420.40;125.67;;;;;;;-2.09;nan;98617.41;5030772;28;20299;-59
2023/03/04 05:41:11;;;;;;;420.53;125.40;;;;;;;-2.17;nan;98619.69;5032791;28;20260;-60
2023/03/04 05:43:41;;;;;;;421.53;131.60;;;;;;;-1.89;nan;98649.84;5028846;28;20041;-59
2023/03/04 05:46:07;;;;;;;418.17;127.47;;;;;;;-1.96;nan;98640.41;5028176;28;20520;-61
2023/03/04 05:48:33;;;;;;;415.60;123.17;;;;;;;-1.87;nan;98648.22;5029505;28;20418;-59
2023/03/04 05:51:00;;;;;;;411.60;121.17;;;;;;;-1.77;nan;98653.50;5032085;28;20787;-58
2023/03/04 05:53:27;;;;;;;413.33;122.00;;;;;;;-1.68;nan;98648.75;5031172;28;20052;-60
2023/03/04 05:55:53;;;;;;;411.30;123.03;;;;;;;-1.61;nan;98653.19;5026305;28;20303;-59
2023/03/04 05:58:20;;;;;;;410.50;122.60;;;;;;;-1.59;nan;98644.84;5028227;28;20311;-59
2023/03/04 06:00:46;;;;;;;417.33;124.20;;;;;;;-1.54;nan;98650.88;5031458;28;20296;-59
2023/03/04 06:03:17;;;;;;;414.20;121.80;;;;;;;-1.67;nan;98623.69;5026294;28;20382;-59
2023/03/04 06:05:43;;;;;;;417.33;124.33;;;;;;;-1.48;nan;98656.06;5031640;28;20387;-60
2023/03/04 06:08:10;;;;;;;409.97;121.13;;;;;;;-1.56;nan;98627.34;5028181;28;20786;-61
2023/03/04 06:10:36;;;;;;;410.77;123.20;;;;;;;-1.38;nan;98652.16;5029507;28;20543;-60
2023/03/04 06:13:02;;;;;;;411.33;125.37;;;;;;;-1.36;nan;98634.59;5026887;28;20303;-61
2023/03/04 06:15:28;;;;;;;416.43;123.50;;;;;;;-1.25;nan;98654.19;5030674;28;20298;-60
2023/03/04 06:17:54;;;;;;;416.83;137.37;;;;;;;-1.24;nan;98643.34;5027617;28;20127;-62
2023/03/04 06:20:20;;;;;;;410.77;124.07;;;;;;;-1.13;nan;98644.47;5030349;28;20551;-59
2023/03/04 06:22:45;;;;;;;418.40;151.63;;;;;;;-1.04;nan;98634.66;5032087;28;20415;-60
2023/03/04 06:25:11;;;;;;;415.37;126.33;;;;;;;-0.79;nan;98668.88;5034635;28;20296;-60
2023/03/04 06:27:37;;;;;;;418.23;128.83;;;;;;;-0.69;nan;98665.78;5032584;28;20483;-61
2023/03/04 06:30:03;;;;;;;421.27;132.93;;;;;;;-0.62;nan;98665.13;5033865;28;20087;-60
2023/03/04 06:32:29;;;;;;;422.07;131.43;;;;;;;-0.53;nan;98669.53;5030830;28;20041;-59
2023/03/04 06:34:55;;;;;;;418.43;139.60;;;;;;;-0.45;nan;98673.09;5031042;28;20283;-61
2023/03/04 06:37:21;;;;;;;420.17;126.03;;;;;;;-0.38;nan;98664.84;5031157;28;20103;-60
2023/03/04 06:39:47;;;;;;;417.87;126.43;;;;;;;-0.30;nan;98668.44;5032575;28;20296;-60
2023/03/04 06:42:12;;;;;;;421.50;133.00;;;;;;;-0.12;nan;98663.81;5030267;28;20048;-61
2023/03/04 06:44:38;;;;;;;416.30;132.80;;;;;;;0.05;nan;98665.88;5030414;28;20038;-63
2023/03/04 06:47:04;;;;;;;421.50;129.40;;;;;;;0.16;nan;98654.38;5032633;28;20099;-64
2023/03/04 06:49:30;;;;;;;426.20;133.80;;;;;;;0.33;nan;98670.72;5031783;28;20045;-60
2023/03/04 06:51:55;;;;;;;417.23;133.23;;;;;;;0.87;nan;98638.22;5027484;28;20287;-58
2023/03/04 06:54:21;;;;;;;418.87;133.07;;;;;;;1.28;nan;98654.13;5030886;28;20549;-61
2023/03/04 06:56:47;;;;;;;423.33;133.67;;;;;;;1.74;nan;98658.31;5028918;28;20041;-60
2023/03/04 06:59:12;;;;;;;424.60;136.87;;;;;;;1.66;nan;98632.88;5040216;28;20057;-61
2023/03/04 07:01:38;;;;;;;423.30;140.00;;;;;;;1.98;nan;98630.00;5029250;28;20112;-54
2023/03/04 07:04:04;;;;;;;425.13;140.00;;;;;;;2.22;nan;98658.19;5028486;28;20238;-63
2023/03/04 07:06:30;;;;;;;425.00;138.70;;;;;;;2.65;nan;98654.53;5027657;28;20051;-59
2023/03/04 07:08:56;;;;;;;434.33;140.70;;;;;;;2.75;nan;98657.22;5036720;28;20296;-60
2023/03/04 07:11:23;;;;;;;428.53;144.90;;;;;;;2.39;nan;98613.72;5028106;28;20027;-59
2023/03/04 07:13:49;;;;;;;432.10;149.03;;;;;;;3.06;nan;98660.09;5026890;28;20302;-60
2023/03/04 07:16:20;;;;;;;434.23;149.30;;;;;;;3.07;nan;98654.19;5027843;28;20375;-60
2023/03/04 07:18:45;;;;;;;426.67;146.10;;;;;;;3.13;nan;98659.34;5028414;28;20381;-59
2023/03/04 07:21:13;;;;;;;439.33;152.50;;;;;;;3.09;nan;98660.13;5027808;28;20744;-59
2023/03/04 07:23:39;;;;;;;438.10;152.20;;;;;;;3.25;nan;98651.88;5027144;28;20048;-60
2023/03/04 07:26:05;;;;;;;430.63;148.53;;;;;;;3.62;nan;98651.38;5031545;28;20292;-59
2023/03/04 07:28:31;;;;;;;432.87;150.90;;;;;;;3.75;nan;98634.56;5028420;28;20695;-59
2023/03/04 07:30:56;;;;;;;435.43;155.40;;;;;;;3.90;nan;98638.94;5029138;28;20057;-59
2023/03/04 07:33:22;;;;;;;436.30;157.90;;;;;;;4.23;nan;98643.38;5027480;28;20292;-60
2023/03/04 07:35:47;;;;;;;444.50;172.30;;;;;;;4.90;nan;98644.56;5026920;28;20045;-60
2023/03/04 07:38:13;;;;;;;446.23;178.17;;;;;;;5.38;nan;98643.84;5029230;28;20157;-60
2023/03/04 07:40:39;;;;;;;446.03;176.13;;;;;;;5.82;nan;98643.88;5025367;28;20049;-60
2023/03/04 07:43:05;;;;;;;447.10;182.73;;;;;;;6.74;nan;98617.44;5029416;28;20041;-60
2023/03/04 07:45:30;;;;;;;455.50;201.50;;;;;;;7.38;nan;98624.75;5025072;28;20032;-60
2023/03/04 07:47:59;;;;;;;458.33;204.07;;;;;;;7.89;nan;98628.63;5027246;28;20098;-60
2023/03/04 07:50:25;;;;;;;457.60;209.43;;;;;;;8.07;nan;98636.09;5027563;28;20476;-62
2023/03/04 07:52:51;;;;;;;462.50;223.90;;;;;;;8.05;nan;98596.97;5026791;28;20049;-58
2023/03/04 07:55:17;;;;;;;454.77;218.80;;;;;;;8.39;nan;98623.06;5029316;28;20670;-58
2023/03/04 07:57:44;;;;;;;464.57;240.20;;;;;;;8.47;nan;98613.59;5026641;28;20057;-61
2023/03/04 08:00:12;;;;;;;460.90;246.17;;;;;;;8.69;nan;98631.25;5028324;28;20543;-59
2023/03/04 08:02:39;;;;;;;464.30;240.83;;;;;;;8.70;nan;98611.63;5026207;28;20048;-60
2023/03/04 08:05:05;;;;;;;466.70;244.90;;;;;;;8.66;nan;98599.75;5027002;28;20048;-60
2023/03/04 08:07:32;;;;;;;463.10;246.67;;;;;;;8.91;nan;98613.09;5028757;28;20642;-60
2023/03/04 08:09:57;;;;;;;451.53;233.13;;;;;;;9.05;nan;98609.47;5028705;28;20087;-59
2023/03/04 08:12:24;;;;;;;474.13;268.93;;;;;;;9.12;nan;98616.19;5027996;28;20041;-61
2023/03/04 08:14:50;;;;;;;480.90;272.30;;;;;;;9.15;nan;98599.97;5025397;28;20056;-61
2023/03/04 08:17:16;;;;;;;476.33;274.97;;;;;;;9.18;nan;98626.34;5024673;28;20041;-59
2023/03/04 08:19:42;;;;;;;482.30;289.03;;;;;;;9.28;nan;98621.13;5018134;28;20058;-59
2023/03/04 08:22:08;;;;;;;485.97;292.30;;;;;;;9.30;nan;98599.75;5017903;28;20819;-60
2023/03/04 08:24:33;;;;;;;477.87;284.07;;;;;;;9.55;nan;98613.00;5028553;28;20051;-60
2023/03/04 08:26:59;;;;;;;478.57;278.70;;;;;;;9.55;nan;98625.81;5030889;28;20671;-60
2023/03/04 08:29:25;;;;;;;470.37;275.30;;;;;;;9.65;nan;98624.81;5027278;28;20489;-60
2023/03/04 08:31:53;;;;;;;475.23;282.07;;;;;;;9.66;nan;98629.06;5027152;28;20447;-57
2023/03/04 08:34:21;;;;;;;480.93;295.17;;;;;;;9.64;nan;98594.97;5029210;28;20045;-59
2023/03/04 08:36:47;;;;;;;486.67;307.67;;;;;;;9.78;nan;98618.63;5026377;28;20391;-58
2023/03/04 08:39:14;;;;;;;476.40;293.53;;;;;;;9.85;nan;98624.50;5028165;28;20129;-59
2023/03/04 08:41:40;;;;;;;481.30;301.07;;;;;;;9.96;nan;98613.22;5028473;28;20045;-59
2023/03/04 08:44:09;;;;;;;482.93;310.33;;;;;;;10.04;nan;98611.38;5031294;28;20045;-61
2023/03/04 08:46:35;;;;;;;480.50;311.23;;;;;;;10.06;nan;98609.63;5026996;28;20103;-60
2023/03/04 08:49:01;;;;;;;485.37;315.67;;;;;;;10.28;nan;98612.69;5021114;28;20738;-59
2023/03/04 08:51:27;;;;;;;486.70;317.53;;;;;;;10.38;nan;98610.81;5021539;28;20053;-61
2023/03/04 08:53:53;;;;;;;484.73;321.03;;;;;;;10.32;nan;98595.53;5026970;28;20041;-59
2023/03/04 08:56:18;;;;;;;488.20;322.77;;;;;;;10.49;nan;98608.88;5023401;28;20072;-59
2023/03/04 08:58:44;;;;;;;489.53;330.07;;;;;;;10.61;nan;98607.81;5025024;28;20162;-60
2023/03/04 09:01:11;;;;;;;488.13;331.90;;;;;;;10.60;nan;98595.84;5027360;28;20133;-59
2023/03/04 09:03:38;;;;;;;490.53;331.63;;;;;;;10.68;nan;98570.91;5029278;28;20479;-59
2023/03/04 09:06:04;;;;;;;484.50;324.67;;;;;;;10.85;nan;98612.44;5027488;28;20080;-64
2023/03/04 09:08:31;;;;;;;489.70;340.90;;;;;;;10.73;nan;98581.91;5026674;28;20125;-63
2023/03/04 09:10:57;;;;;;;485.47;337.93;;;;;;;10.63;nan;98567.59;5024908;28;20045;-63
2023/03/04 09:13:23;;;;;;;494.60;350.10;;;;;;;10.80;nan;98581.75;5024982;28;20479;-62
2023/03/04 09:15:51;;;;;;;488.07;341.13;;;;;;;10.57;nan;98598.47;5024470;28;20168;-61
2023/03/04 09:18:18;;;;;;;489.23;340.20;;;;;;;10.79;nan;98600.56;5027614;28;20044;-62
2023/03/04 09:20:44;;;;;;;488.77;340.27;;;;;;;10.85;nan;98597.91;5028452;28;20417;-63
2023/03/04 09:23:10;;;;;;;487.53;345.07;;;;;;;10.89;nan;98593.53;5028167;28;20471;-61
2023/03/04 09:25:37;;;;;;;488.33;338.73;;;;;;;10.90;nan;98596.09;5024599;28;20287;-60
2023/03/04 09:28:04;;;;;;;485.30;340.10;;;;;;;10.77;nan;98589.53;5023961;28;20045;-61
2023/03/04 09:30:29;;;;;;;484.40;334.37;;;;;;;10.82;nan;98567.16;5022584;28;20036;-61
2023/03/04 09:32:56;;;;;;;486.97;338.23;;;;;;;10.80;nan;98579.19;5026047;28;20048;-61
2023/03/04 09:35:22;;;;;;;481.97;331.73;;;;;;;10.86;nan;98589.31;5026404;28;20088;-61
2023/03/04 09:37:48;;;;;;;486.07;345.20;;;;;;;10.82;nan;98613.31;5028589;28;20044;-65
2023/03/04 09:40:23;;;;;;;476.93;319.23;;;;;;;10.77;nan;98571.56;5035230;28;20060;-61
2023/03/04 09:42:52;;;;;;;;;;;;;;;10.69;nan;98586.28;5025835;28;20045;-63
2023/03/04 09:45:25;;;;;;;469.70;296.70;;;;;;;10.68;nan;98570.91;5023730;28;19921;-58
2023/03/04 09:47:53;;;;;;;468.80;309.77;;;;;;;10.60;nan;98559.97;5027577;28;20928;-57
2023/03/04 09:50:20;;;;;;;464.23;304.03;;;;;;;10.66;nan;98603.41;5028237;28;20625;-59
2023/03/04 09:53:22;;;;;;;442.37;267.30;;;;;;;10.75;nan;98559.63;5026244;28;20515;-55
2023/03/04 09:55:51;;;;;;;437.40;228.93;;;;;;;10.88;nan;98566.19;5030216;28;20344;-56
2023/03/04 09:58:36;;;;;;;399.17;190.60;;;;;;;10.92;nan;98576.38;5029360;28;20825;-57
2023/03/04 10:01:10;;;;;;;404.63;191.00;;;;;;;10.77;nan;98551.06;5031458;28;20820;-55
2023/03/04 10:03:47;;;;;;;299.97;148.93;;;;;;;11.09;nan;98552.91;5025841;28;20138;-52
2023/03/04 10:06:16;;;;;;;398.50;189.57;;;;;;;11.13;nan;98608.41;5020750;28;20299;-53
2023/03/04 10:08:45;;;;;;;392.80;183.83;;;;;;;10.83;nan;98588.53;5030710;28;20304;-56
2023/03/04 10:11:40;;;;;;;394.70;189.07;;;;;;;10.80;nan;98586.88;5029845;28;20287;-54
2023/03/04 10:14:21;;;;;;;400.80;185.93;;;;;;;10.93;nan;98578.06;5027614;28;20357;-54
2023/03/04 10:17:15;;;;;;;386.80;182.83;;;;;;;11.03;nan;98583.84;5030830;28;20303;-52
2023/03/04 10:20:01;;;;;;;380.77;172.20;;;;;;;11.08;nan;98584.56;5037872;28;20843;-54
2023/03/04 10:22:37;;;;;;;382.13;176.38;;;;;;;10.78;nan;98585.22;5029043;28;20856;-52
2023/03/04 10:25:18;;;;;;;381.13;182.37;;;;;;;10.66;nan;98544.44;5029133;28;20045;-55
2023/03/04 10:28:01;;;;;;;282.20;142.53;;;;;;;10.86;nan;98542.31;5027768;28;20790;-54
2023/03/04 10:30:43;;;;;;;290.13;140.77;;;;;;;11.09;nan;98552.91;5031980;28;20758;-53
2023/03/04 10:33:17;;;;;;;390.63;191.83;;;;;;;11.04;nan;98556.44;5027625;28;20315;-57
2023/03/04 10:36:02;;;;;;;373.08;177.13;;;;;;;11.12;nan;98531.50;5025875;28;20907;-52
2023/03/04 10:38:34;;;;;;;282.38;140.38;;;;;;;11.45;nan;98556.38;5024550;28;20136;-54
2023/03/04 10:41:01;;;;;;;383.53;188.03;;;;;;;11.35;nan;98548.03;5027291;28;20111;-58
2023/03/04 10:43:26;;;;;;;376.63;181.50;;;;;;;11.24;nan;98546.59;5029159;28;20322;-53
2023/03/04 10:46:02;;;;;;;390.13;189.63;;;;;;;11.00;nan;98553.97;5030987;28;20360;-53
2023/03/04 10:48:28;;;;;;;;;;;;;;;10.89;nan;98532.84;5030581;28;20816;-55
2023/03/04 10:51:18;;;;;;;274.37;132.97;;;;;;;10.96;nan;98541.22;5030637;28;19921;-54
2023/03/04 10:53:47;;;;;;;31.07;28.07;;;;;;;11.06;nan;98542.72;5030424;28;20357;-55
2023/03/04 10:56:59;;;;;;;34.80;31.53;;;;;;;11.23;nan;98543.19;5032531;28;20543;-54
2023/03/04 10:59:45;;;;;;;37.20;34.17;;;;;;;11.04;nan;98525.66;4971857;28;20912;-49
2023/03/04 11:02:19;;;;;;;;;;;;;;;11.07;nan;98525.63;4970888;28;20454;-53
2023/03/04 11:05:14;;;;;;;29.60;27.47;;;;;;;11.14;nan;98530.56;4972276;28;19997;-54
2023/03/04 11:07:50;;;;;;;36.97;33.65;;;;;;;11.14;nan;98530.56;4951450;28;20847;-54
2023/03/04 11:10:27;;;;;;;39.60;33.20;;;;;;;11.01;nan;98506.06;4973952;28;20061;-55
2023/03/04 11:13:22;;;;;;;43.13;39.27;;;;;;;11.00;nan;98515.47;4974453;28;20384;-52
2023/03/04 11:15:57;;;;;;;28.55;16.52;;;;;;;10.68;nan;98535.00;4971202;28;20293;-51
2023/03/04 11:18:38;;;;;;;28.65;15.50;;;;;;;10.79;nan;98518.50;4973498;28;20418;-56
2023/03/04 11:21:05;;;;;;;167.70;85.87;;;;;;;10.77;nan;98510.03;4973180;28;20047;-52
2023/03/04 11:23:30;;;;;;;304.30;157.50;;;;;;;10.79;nan;98525.38;4973347;28;20085;-57
2023/03/04 11:26:09;;;;;;;234.70;194.87;;;;;;;10.81;nan;98518.50;4974827;28;20451;-53